Flight Track Log - Related Links

Times and Time Zones

All times are in EDT time to prevent confusion due to time zone crossing. See the N612TX flight status page for this flight to view local times or setup timezone preferences in your user account.

Time Position Orientation Groundspeed Altitude Reporting Facility
EDT Latitude Longitude Course Direction KTS MPH feet Rate Location/Type
Mon 10:52:55 AM 41.0231 -98.3125 North 139 160 4,100  Level Minneapolis Center
Mon 10:53:56 AM 41.0669 -98.3139 359° North 148 170 5,400 1,366 Climbing Minneapolis Center
Mon 10:54:58 AM 41.1114 -98.2831 28° Northeast 175 201 6,900 1,500 Climbing Minneapolis Center
Mon 10:56:00 AM 41.1364 -98.2250 60° Northeast 179 206 8,500 1,645 Climbing Minneapolis Center
Mon 10:57:00 AM 41.1912 -97.7677 56° Northeast  Level FlightAware
Mon 10:57:02 AM 41.1669 -98.1508 61° Northeast 187 215 10,300  Level Minneapolis Center
Mon 10:58:04 AM 41.1928 -98.0872 62° Northeast 190 219 11,600 1,171 Climbing Minneapolis Center
Mon 10:59:05 AM 41.2203 -98.0200 61° Northeast 202 232 12,700 1,122 Climbing Minneapolis Center
Mon 11:00:07 AM 41.2494 -97.9511 61° Northeast 209 241 13,900 1,065 Climbing Minneapolis Center
Mon 11:01:09 AM 41.2786 -97.8786 62° Northeast 216 249 14,900 1,024 Climbing Minneapolis Center
Mon 11:02:10 AM 41.3094 -97.8042 61° Northeast 224 258 16,000 976 Climbing Minneapolis Center
Mon 11:03:12 AM 41.3400 -97.7294 61° Northeast 229 264 16,900 919 Climbing Minneapolis Center
Mon 11:04:14 AM 41.3728 -97.6492 61° Northeast 239 275 17,900 1,065 Climbing Minneapolis Center
Mon 11:05:16 AM 41.4111 -97.5536 62° Northeast 241 277 19,100 1,024 Climbing Minneapolis Center
Mon 11:06:17 AM 41.4442 -97.4736 61° Northeast 242 278 20,000 732 Climbing Minneapolis Center
Mon 11:07:19 AM 41.4761 -97.3922 62° Northeast 244 281 20,600 581 Climbing Minneapolis Center
Mon 11:08:21 AM 41.5103 -97.3081 62° Northeast 251 289 21,200 629 Climbing Minneapolis Center
Mon 11:09:23 AM 41.5450 -97.2219 62° Northeast 257 296 21,900 683 Climbing Minneapolis Center
Mon 11:10:24 AM 41.5789 -97.1342 63° Northeast 261 300 22,600 634 Climbing Minneapolis Center
Mon 11:11:26 AM 41.6139 -97.0464 62° Northeast 262 302 23,200 629 Climbing Minneapolis Center
Mon 11:12:28 AM 41.6500 -96.9569 62° Northeast 266 306 23,900 537 Climbing Minneapolis Center
Mon 11:13:29 AM 41.6922 -96.8494 62° Northeast 268 308 24,300 439 Climbing Minneapolis Center
Mon 11:14:31 AM 41.7283 -96.7592 62° Northeast 269 310 24,800 339 Climbing Minneapolis Center
Mon 11:15:33 AM 41.7647 -96.6653 63° Northeast 276 318 25,000 97 Climbing Minneapolis Center
Mon 11:16:35 AM 41.8025 -96.5694 62° Northeast 285 328 25,000  Level Minneapolis Center
Mon 11:17:36 AM 41.8422 -96.4675 62° Northeast 299 344 25,000  Level Minneapolis Center
Mon 11:18:38 AM 41.8819 -96.3667 62° Northeast 304 350 25,000  Level Minneapolis Center
Mon 11:19:40 AM 41.9211 -96.2636 63° Northeast 304 350 25,000  Level Minneapolis Center
Mon 11:20:41 AM 41.9617 -96.1597 62° Northeast 309 356 25,000  Level Minneapolis Center
Mon 11:21:43 AM 42.0089 -96.0339 63° Northeast 311 358 25,000  Level Minneapolis Center
Mon 11:22:45 AM 42.0489 -95.9303 63° Northeast 311 358 25,000  Level Minneapolis Center
Mon 11:23:47 AM 42.0886 -95.8258 63° Northeast 311 358 25,000  Level Minneapolis Center
Mon 11:24:48 AM 42.1281 -95.7222 63° Northeast 311 358 25,000  Level Minneapolis Center
Mon 11:25:50 AM 42.1675 -95.6167 63° Northeast 312 359 25,000  Level Minneapolis Center
Mon 11:26:52 AM 42.2083 -95.5128 62° Northeast 312 359 25,000  Level Minneapolis Center
Mon 11:27:53 AM 42.2475 -95.4056 64° Northeast 314 361 25,000  Level Minneapolis Center
Mon 11:28:55 AM 42.2878 -95.3011 62° Northeast 315 362 25,000  Level Minneapolis Center
Mon 11:29:57 AM 42.3264 -95.1939 64° Northeast 315 362 25,000  Level Minneapolis Center
Mon 11:30:58 AM 42.3744 -95.0664 63° Northeast 316 364 25,000  Level Minneapolis Center
Mon 11:32:00 AM 42.4142 -94.9592 63° Northeast 318 366 25,000  Level Minneapolis Center
Mon 11:33:02 AM 42.4536 -94.8511 64° Northeast 318 366 25,000  Level Minneapolis Center
Mon 11:34:04 AM 42.4936 -94.7436 63° Northeast 319 367 25,000  Level Minneapolis Center
Mon 11:36:07 AM 42.5753 -94.5194 64° Northeast 320 368 25,000  Level Minneapolis Center
Mon 11:37:09 AM 42.6153 -94.4144 63° Northeast 319 367 25,000  Level Minneapolis Center
Mon 11:38:11 AM 42.6528 -94.3050 65° Northeast 319 367 25,000  Level Minneapolis Center
Mon 11:39:13 AM 42.6919 -94.1981 63° Northeast 319 367 25,000  Level Minneapolis Center
Mon 11:40:14 AM 42.7383 -94.0686 64° Northeast 319 367 25,000  Level Minneapolis Center
Mon 11:41:16 AM 42.7767 -93.9617 64° Northeast 319 367 25,000  Level Minneapolis Center
Mon 11:42:18 AM 42.8147 -93.8528 64° Northeast 319 367 25,000  Level Minneapolis Center
Mon 11:43:20 AM 42.8531 -93.7439 64° Northeast 320 368 25,000  Level Minneapolis Center
Mon 11:44:21 AM 42.8919 -93.6356 64° Northeast 320 368 25,000  Level Minneapolis Center
Mon 11:45:23 AM 42.9303 -93.5258 64° Northeast 320 368 25,000  Level Minneapolis Center
Mon 11:46:25 AM 42.9753 -93.3958 65° Northeast 320 368 25,000  Level Minneapolis Center
Mon 11:47:27 AM 43.0131 -93.2864 65° Northeast 320 368 25,000  Level Minneapolis Center
Mon 11:48:28 AM 43.0508 -93.1761 65° Northeast 320 368 25,000  Level Minneapolis Center
Mon 11:49:30 AM 43.0900 -93.0661 64° Northeast 320 368 25,000  Level Minneapolis Center
Mon 11:50:32 AM 43.1275 -92.9561 65° Northeast 320 368 25,000  Level Minneapolis Center
Mon 11:51:34 AM 43.1658 -92.8467 64° Northeast 320 368 25,000  Level Minneapolis Center
Mon 11:52:35 AM 43.2103 -92.7158 65° Northeast 320 368 25,000  Level Minneapolis Center
Mon 11:53:37 AM 43.2469 -92.6069 65° Northeast 320 368 25,000  Level Minneapolis Center
Mon 11:54:39 AM 43.2842 -92.4961 65° Northeast 319 367 25,000  Level Minneapolis Center
Mon 11:55:40 AM 43.3222 -92.3850 65° Northeast 320 368 25,000  Level Minneapolis Center
Mon 11:56:42 AM 43.3603 -92.2736 65° Northeast 320 368 25,000  Level Minneapolis Center
Mon 11:57:44 AM 43.3967 -92.1619 66° East 320 368 25,000  Level Minneapolis Center
Mon 11:58:48 AM 43.4419 -92.0294 65° Northeast 321 369 25,000  Level Minneapolis Center
Mon 11:59:50 AM 43.4781 -91.9169 66° East 320 368 25,000  Level Minneapolis Center
Mon 12:00:52 PM 43.5153 -91.8069 65° Northeast 320 368 25,000  Level Minneapolis Center
Mon 12:01:53 PM 43.5511 -91.6939 66° East 320 368 25,000  Level Minneapolis Center
Mon 12:02:55 PM 43.5881 -91.5825 65° Northeast 320 368 25,000  Level Minneapolis Center
Mon 12:03:57 PM 43.6244 -91.4717 66° East 320 368 25,000  Level Minneapolis Center
Mon 12:04:58 PM 43.6611 -91.3594 66° East 320 368 25,000 49 Level Minneapolis Center
Mon 12:06:00 PM 43.7039 -91.2267 66° East 320 368 25,100  Climbing Minneapolis Center
Mon 12:06:50 PM 43.7322 -91.1381 66° East 320 368 25,000 -54 Descending Minneapolis Center
Mon 12:07:51 PM 43.7681 -91.0269 66° East 320 368 25,000  Level Minneapolis Center
Mon 12:08:53 PM 43.8031 -90.9150 67° East 319 367 25,000  Level Minneapolis Center
Mon 12:09:29 PM 43.8236 -90.8522 66° East 314 361 25,000  Level Chicago Center
Mon 12:10:31 PM 43.8592 -90.7414 66° East 314 361 25,000  Level Chicago Center
Mon 12:11:58 PM 43.9144 -90.5625 67° East 314 361 25,000  Level Minneapolis Center
Mon 12:13:00 PM 43.9481 -90.4603 65° Northeast 315 362 25,000  Level Minneapolis Center
Mon 12:14:02 PM 43.9819 -90.3492 67° East 314 361 25,000  Level Minneapolis Center
Mon 12:15:04 PM 44.0161 -90.2386 67° East 314 361 25,000  Level Minneapolis Center
Mon 12:16:05 PM 44.0494 -90.1286 67° East 313 360 25,000  Level Minneapolis Center
Mon 12:17:07 PM 44.0911 -89.9953 66° East 312 359 25,000  Level Minneapolis Center
Mon 12:18:09 PM 44.1250 -89.8844 67° East 312 359 25,000  Level Minneapolis Center
Mon 12:19:11 PM 44.1594 -89.7728 67° East 312 359 25,000  Level Minneapolis Center
Mon 12:20:12 PM 44.1931 -89.6614 67° East 312 359 25,000  Level Minneapolis Center
Mon 12:21:14 PM 44.2272 -89.5497 67° East 313 360 25,000 -194 Level Minneapolis Center
Mon 12:22:16 PM 44.2600 -89.4386 68° East 313 360 24,600 -581 Descending Minneapolis Center
Mon 12:23:18 PM 44.2958 -89.3228 67° East 318 366 23,800 -1,073 Descending Minneapolis Center
Mon 12:24:19 PM 44.3378 -89.1814 67° East 324 373 22,400 -1,317 Descending Minneapolis Center
Mon 12:25:21 PM 44.3708 -89.0681 68° East 322 371 21,100 -1,355 Descending Minneapolis Center
Mon 12:26:23 PM 44.4036 -88.9578 67° East 314 361 19,600 -1,500 Descending Minneapolis Center
Mon 12:27:25 PM 44.4369 -88.8469 67° East 314 361 18,000 -1,463 Descending Minneapolis Center
Mon 12:28:26 PM 44.4686 -88.7361 68° East 313 360 16,600 -1,512 Descending Minneapolis Center
Mon 12:29:28 PM 44.5008 -88.6300 67° East 303 349 14,900 -1,597 Descending Minneapolis Center
Mon 12:30:30 PM 44.5317 -88.5233 68° East 297 342 13,300 -1,355 Descending Minneapolis Center
Mon 12:31:32 PM 44.5606 -88.4217 68° East 288 331 12,100 -1,210 Descending Minneapolis Center
Mon 12:32:34 PM 44.5919 -88.3111 68° East 261 300 10,800 -1,171 Descending Minneapolis Center
Mon 12:33:35 PM 44.6178 -88.2211 68° East 252 290 9,700 -1,073 Descending Minneapolis Center
Mon 12:34:37 PM 44.6444 -88.1286 68° East 253 291 8,600 -1,065 Descending Minneapolis Center
Mon 12:35:39 PM 44.6719 -88.0336 68° East 258 297 7,500 -1,065 Descending Minneapolis Center
Mon 12:36:41 PM 44.6981 -87.9389 69° East 260 299 6,400 -1,065 Descending Minneapolis Center
Mon 12:38:00 PM 44.7273 -87.8002 69° East  Level FlightAware
Mon 12:45:00 PM 44.8333 -87.4167 65° Northeast  Level FlightAware
Mon 12:46:00 PM 44.8437 -87.4215 65° Northeast  Level Estimated
Mon 12:47:00 PM 44.8437 -87.4215 65° Northeast  Level Estimated

Login

Don't have an account? Register now (free) for customized features, flight alerts, and more!